createdAt,value
2022-11-10T00:01:22.690Z,9.40
2022-11-10T00:04:09.669Z,9.30
2022-11-10T00:06:57.810Z,9.40
2022-11-10T00:09:44.301Z,9.40
2022-11-10T00:12:31.636Z,9.30
2022-11-10T00:15:36.494Z,9.30
2022-11-10T00:18:23.391Z,9.30
2022-11-10T00:21:12.088Z,9.30
2022-11-10T00:24:00.352Z,9.30
2022-11-10T00:26:47.221Z,9.20
2022-11-10T00:29:34.014Z,9.30
2022-11-10T00:32:20.966Z,9.20
2022-11-10T00:35:08.724Z,9.20
2022-11-10T00:37:55.547Z,9.20
2022-11-10T00:40:43.800Z,9.30
2022-11-10T00:43:32.803Z,9.30
2022-11-10T00:46:19.969Z,9.20
2022-11-10T00:49:06.999Z,9.20
2022-11-10T00:51:53.813Z,9.20
2022-11-10T00:54:40.819Z,9.30
2022-11-10T00:57:29.257Z,9.20
2022-11-10T01:00:16.072Z,9.20
2022-11-10T01:03:03.550Z,9.10
2022-11-10T01:05:50.222Z,9.20
2022-11-10T01:08:37.814Z,9.20
2022-11-10T01:11:27.049Z,9.20
2022-11-10T01:14:15.132Z,9.10
2022-11-10T01:17:01.977Z,9.10
2022-11-10T01:19:48.808Z,9.10
2022-11-10T01:22:35.954Z,9.10
2022-11-10T01:25:22.531Z,9.10
2022-11-10T01:28:09.444Z,9.10
2022-11-10T01:31:01.171Z,9.10
2022-11-10T01:33:48.251Z,9.00
2022-11-10T01:36:34.894Z,9.00
2022-11-10T01:39:21.821Z,9.00
2022-11-10T01:42:08.975Z,9.00
2022-11-10T01:45:38.425Z,9.00
2022-11-10T01:48:32.877Z,9.00
2022-11-10T01:51:23.020Z,9.00
2022-11-10T01:54:12.899Z,9.10
2022-11-10T01:57:05.120Z,8.90
2022-11-10T01:59:52.195Z,8.90
2022-11-10T02:02:44.037Z,8.90
2022-11-10T02:05:32.611Z,8.90
2022-11-10T02:08:20.615Z,8.90
2022-11-10T02:11:07.504Z,8.90
2022-11-10T02:13:54.905Z,8.90
2022-11-10T02:16:43.207Z,8.90
2022-11-10T02:19:30.146Z,8.80
2022-11-10T02:22:18.065Z,8.80
2022-11-10T02:25:05.679Z,8.90
2022-11-10T02:27:52.549Z,8.90
2022-11-10T02:30:39.364Z,8.90
2022-11-10T02:33:26.092Z,8.90
2022-11-10T02:36:13.523Z,8.90
2022-11-10T02:39:01.947Z,8.90
2022-11-10T02:41:48.676Z,8.90
2022-11-10T02:44:35.592Z,8.90
2022-11-10T02:47:23.550Z,8.90
2022-11-10T02:50:10.965Z,8.90
2022-11-10T02:52:57.575Z,8.90
2022-11-10T02:55:45.731Z,8.90
2022-11-10T02:58:32.200Z,8.90
2022-11-10T03:01:19.181Z,8.90
2022-11-10T03:04:06.895Z,8.80
2022-11-10T03:06:53.793Z,8.90
2022-11-10T03:09:41.175Z,8.80
2022-11-10T03:12:29.467Z,8.80
2022-11-10T03:15:16.350Z,8.80
2022-11-10T03:18:05.678Z,8.80
2022-11-10T03:20:52.736Z,8.80
2022-11-10T03:23:39.623Z,8.80
2022-11-10T03:26:26.545Z,8.70
2022-11-10T03:29:14.734Z,8.70
2022-11-10T03:32:02.451Z,8.70
2022-11-10T03:34:49.425Z,8.60
2022-11-10T03:37:36.282Z,8.70
2022-11-10T03:40:23.413Z,8.70
2022-11-10T03:43:12.421Z,8.60
2022-11-10T03:46:00.523Z,8.60
2022-11-10T03:48:52.965Z,8.60
2022-11-10T03:51:40.282Z,8.60
2022-11-10T03:54:27.152Z,8.60
2022-11-10T03:57:14.084Z,8.60
2022-11-10T04:00:00.980Z,8.60
2022-11-10T04:02:49.130Z,8.60
2022-11-10T04:05:53.334Z,8.60
2022-11-10T04:08:57.969Z,8.70
2022-11-10T04:12:02.689Z,8.60
2022-11-10T04:15:07.407Z,8.60
2022-11-10T04:17:55.583Z,8.60
2022-11-10T04:20:42.499Z,8.60
2022-11-10T04:23:34.745Z,8.50
2022-11-10T04:26:30.687Z,8.60
2022-11-10T04:29:18.799Z,8.50
2022-11-10T04:32:05.909Z,8.60
2022-11-10T04:34:53.966Z,8.60
2022-11-10T04:37:40.573Z,8.60
2022-11-10T04:40:27.678Z,8.50
2022-11-10T04:43:14.683Z,8.50
2022-11-10T04:46:02.020Z,8.50
2022-11-10T04:48:49.568Z,8.50
2022-11-10T04:51:39.578Z,8.50
2022-11-10T04:54:27.005Z,8.50
2022-11-10T04:57:13.945Z,8.50
2022-11-10T05:00:00.877Z,8.50
2022-11-10T05:02:47.857Z,8.50
2022-11-10T05:05:34.891Z,8.50
2022-11-10T05:08:24.917Z,8.50
2022-11-10T05:11:12.748Z,8.50
2022-11-10T05:13:59.464Z,8.60
2022-11-10T05:16:46.487Z,8.50
2022-11-10T05:19:33.387Z,8.60
2022-11-10T05:22:20.249Z,8.60
2022-11-10T05:25:09.303Z,8.60
2022-11-10T05:27:55.983Z,8.60
2022-11-10T05:30:43.018Z,8.60
2022-11-10T05:33:29.723Z,8.50
2022-11-10T05:36:16.489Z,8.50
2022-11-10T05:39:03.473Z,8.50
2022-11-10T05:41:51.680Z,8.50
2022-11-10T05:44:38.491Z,8.50
2022-11-10T05:47:25.321Z,8.50
2022-11-10T05:50:12.687Z,8.50
2022-11-10T05:52:59.184Z,8.40
2022-11-10T05:55:46.248Z,8.40
2022-11-10T05:58:34.537Z,8.40
2022-11-10T06:01:21.233Z,8.40
2022-11-10T06:04:07.992Z,8.40
2022-11-10T06:06:55.144Z,8.30
2022-11-10T06:09:42.033Z,8.30
2022-11-10T06:12:30.325Z,8.20
2022-11-10T06:15:20.204Z,8.20
2022-11-10T06:18:07.272Z,8.20
2022-11-10T06:20:54.008Z,8.10
2022-11-10T06:23:40.815Z,8.10
2022-11-10T06:26:27.704Z,8.10
2022-11-10T06:29:14.540Z,8.10
2022-11-10T06:32:02.817Z,8.00
2022-11-10T06:34:50.381Z,7.90
2022-11-10T06:37:38.683Z,8.00
2022-11-10T06:40:25.662Z,7.90
2022-11-10T06:43:12.612Z,7.90
2022-11-10T06:45:59.504Z,7.80
2022-11-10T06:48:47.732Z,7.80
2022-11-10T06:51:34.443Z,7.80
2022-11-10T06:54:21.052Z,7.80
2022-11-10T06:57:08.231Z,7.80
2022-11-10T06:59:55.404Z,7.80
2022-11-10T07:02:42.148Z,7.90
2022-11-10T07:05:31.446Z,7.80
2022-11-10T07:08:18.387Z,7.90
2022-11-10T07:11:05.352Z,7.90
2022-11-10T07:13:52.319Z,7.90
2022-11-10T07:16:39.252Z,8.00
2022-11-10T07:19:26.092Z,7.90
2022-11-10T07:22:14.358Z,8.00
2022-11-10T07:25:01.416Z,8.00
2022-11-10T07:27:53.925Z,8.00
2022-11-10T07:30:41.561Z,8.10
2022-11-10T07:33:28.277Z,8.10
2022-11-10T07:36:15.382Z,8.20
2022-11-10T07:39:03.712Z,8.30
2022-11-10T07:41:52.649Z,8.30
2022-11-10T07:44:39.768Z,8.40
2022-11-10T07:47:26.660Z,8.40
2022-11-10T07:50:13.587Z,8.50
2022-11-10T07:53:08.019Z,8.60
2022-11-10T07:55:56.328Z,8.70
2022-11-10T07:58:42.872Z,8.80
2022-11-10T08:01:30.036Z,8.80
2022-11-10T08:04:17.304Z,8.90
2022-11-10T08:07:04.334Z,9.00
2022-11-10T08:09:51.349Z,9.10
2022-11-10T08:12:39.793Z,9.20
2022-11-10T08:15:27.432Z,9.30
2022-11-10T08:18:18.208Z,9.40
2022-11-10T08:21:06.524Z,9.40
2022-11-10T08:23:53.005Z,9.50
2022-11-10T08:26:40.103Z,9.60
2022-11-10T08:29:28.297Z,9.80
2022-11-10T08:32:15.086Z,9.80
2022-11-10T08:35:02.164Z,9.90
2022-11-10T08:37:49.003Z,10.00
2022-11-10T08:40:36.438Z,10.10
2022-11-10T08:43:23.592Z,10.20
2022-11-10T08:46:12.110Z,10.30
2022-11-10T08:48:58.583Z,10.40
2022-11-10T08:51:45.272Z,10.50
2022-11-10T08:54:32.291Z,10.60
2022-11-10T08:57:19.215Z,10.80
2022-11-10T09:00:07.220Z,10.80
2022-11-10T09:02:55.404Z,10.90
2022-11-10T09:05:43.472Z,11.00
2022-11-10T09:08:30.440Z,11.20
2022-11-10T09:11:17.409Z,11.20
2022-11-10T09:14:04.278Z,11.30
2022-11-10T09:16:51.215Z,11.50
2022-11-10T09:19:39.705Z,11.50
2022-11-10T09:22:26.891Z,11.60
2022-11-10T09:25:13.726Z,11.70
2022-11-10T09:28:00.700Z,11.80
2022-11-10T09:30:48.451Z,12.00
2022-11-10T09:33:35.430Z,12.10
2022-11-10T09:36:23.689Z,12.10
2022-11-10T09:39:10.541Z,12.20
2022-11-10T09:41:57.542Z,12.40
2022-11-10T09:44:52.369Z,12.50
2022-11-10T09:48:01.920Z,12.70
2022-11-10T09:50:52.752Z,12.80
2022-11-10T09:53:48.962Z,12.80
2022-11-10T09:56:37.697Z,12.90
2022-11-10T09:59:28.367Z,13.10
2022-11-10T10:02:23.762Z,13.30
2022-11-10T10:05:34.940Z,13.30
2022-11-10T10:08:32.913Z,13.50
2022-11-10T10:11:36.136Z,13.60
2022-11-10T10:14:35.692Z,13.80
2022-11-10T10:17:28.665Z,13.80
2022-11-10T10:20:20.695Z,13.90
2022-11-10T10:23:18.053Z,14.00
2022-11-10T10:26:05.085Z,14.10
2022-11-10T10:28:55.319Z,14.20
2022-11-10T10:31:44.459Z,14.20
2022-11-10T10:34:34.511Z,14.30
2022-11-10T10:37:25.091Z,14.40
2022-11-10T10:40:16.799Z,14.50
2022-11-10T10:43:04.493Z,14.50
2022-11-10T10:46:07.851Z,14.60
2022-11-10T10:49:29.542Z,14.60
2022-11-10T10:52:20.807Z,14.70
2022-11-10T10:55:09.724Z,14.70
2022-11-10T10:58:00.736Z,14.80
2022-11-10T11:00:49.154Z,14.90
2022-11-10T11:03:43.422Z,14.90
2022-11-10T11:06:31.255Z,14.90
2022-11-10T11:09:23.490Z,15.00
2022-11-10T11:12:13.229Z,15.00
2022-11-10T11:15:14.626Z,15.00
2022-11-10T11:18:03.516Z,15.10
2022-11-10T11:21:00.137Z,15.10
2022-11-10T11:24:07.584Z,15.20
2022-11-10T11:27:02.096Z,15.30
2022-11-10T11:30:05.820Z,15.40
2022-11-10T11:33:07.433Z,15.50
2022-11-10T11:35:59.857Z,15.50
2022-11-10T11:38:56.522Z,15.50
2022-11-10T11:41:49.166Z,15.60
2022-11-10T11:44:51.269Z,15.70
2022-11-10T11:47:52.662Z,15.70
2022-11-10T11:50:44.677Z,15.70
2022-11-10T11:53:47.707Z,15.70
2022-11-10T11:56:37.927Z,15.70
2022-11-10T11:59:42.094Z,15.90
2022-11-10T12:02:44.144Z,15.90
2022-11-10T12:05:43.028Z,16.10
2022-11-10T12:08:38.958Z,16.30
2022-11-10T12:11:35.780Z,16.40
2022-11-10T12:14:29.589Z,16.60
2022-11-10T12:17:27.828Z,16.60
2022-11-10T12:20:34.733Z,16.70
2022-11-10T12:23:29.081Z,16.80
2022-11-10T12:26:29.215Z,16.80
2022-11-10T12:29:26.328Z,16.70
2022-11-10T12:32:18.731Z,16.50
2022-11-10T12:35:14.124Z,16.40
2022-11-10T12:38:06.256Z,16.30
2022-11-10T12:41:02.757Z,16.20
2022-11-10T12:44:01.533Z,16.40
2022-11-10T12:46:54.932Z,16.50
2022-11-10T12:49:50.545Z,16.50
2022-11-10T12:52:44.642Z,16.40
2022-11-10T12:55:37.020Z,16.30
2022-11-10T12:58:24.573Z,16.30
2022-11-10T13:01:17.753Z,16.20
2022-11-10T13:04:06.100Z,16.10
2022-11-10T13:06:56.561Z,16.00
2022-11-10T13:09:45.488Z,16.00
2022-11-10T13:12:32.223Z,16.00
2022-11-10T13:15:48.950Z,15.90
2022-11-10T13:19:01.759Z,15.80
2022-11-10T13:22:36.873Z,15.90
2022-11-10T13:25:43.247Z,15.80
2022-11-10T13:29:01.568Z,15.90
2022-11-10T13:31:56.391Z,16.00
2022-11-10T13:34:45.950Z,16.00
2022-11-10T13:37:50.557Z,16.10
2022-11-10T13:40:39.643Z,16.20
2022-11-10T13:43:28.509Z,16.10
2022-11-10T13:46:15.449Z,16.00
2022-11-10T13:49:25.938Z,16.00
2022-11-10T13:52:18.628Z,16.10
2022-11-10T13:55:30.349Z,16.10
2022-11-10T13:58:24.289Z,16.20
2022-11-10T14:01:32.276Z,16.10
2022-11-10T14:04:38.363Z,16.10
2022-11-10T14:07:29.192Z,16.00
2022-11-10T14:10:20.836Z,15.90
2022-11-10T14:13:14.816Z,15.90
2022-11-10T14:16:01.974Z,15.80
2022-11-10T14:18:55.367Z,15.80
2022-11-10T14:21:46.511Z,15.70
2022-11-10T14:24:38.765Z,15.60
2022-11-10T14:27:28.553Z,15.60
2022-11-10T14:30:25.596Z,15.50
2022-11-10T14:33:15.198Z,15.50
2022-11-10T14:36:03.822Z,15.50
2022-11-10T14:38:52.117Z,15.50
2022-11-10T14:41:49.263Z,15.40
2022-11-10T14:44:37.818Z,15.40
2022-11-10T14:47:27.757Z,15.40
2022-11-10T14:50:20.353Z,15.30
2022-11-10T14:53:13.684Z,15.30
2022-11-10T14:56:02.372Z,15.30
2022-11-10T14:58:51.478Z,15.20
2022-11-10T15:01:42.147Z,15.10
2022-11-10T15:04:32.068Z,15.00
2022-11-10T15:07:19.301Z,14.90
2022-11-10T15:10:09.278Z,14.80
2022-11-10T15:13:07.038Z,14.80
2022-11-10T15:16:25.454Z,14.80
2022-11-10T15:19:23.217Z,14.70
2022-11-10T15:22:18.507Z,14.60
2022-11-10T15:25:14.588Z,14.50
2022-11-10T15:28:04.254Z,14.30
2022-11-10T15:30:57.417Z,14.20
2022-11-10T15:33:48.326Z,14.20
2022-11-10T15:36:39.554Z,14.00
2022-11-10T15:39:27.301Z,13.90
2022-11-10T15:42:16.549Z,13.80
2022-11-10T15:45:03.542Z,13.70
2022-11-10T15:47:51.984Z,13.50
2022-11-10T15:50:39.169Z,13.40
2022-11-10T15:53:28.868Z,13.30
2022-11-10T15:56:17.194Z,13.20
2022-11-10T15:59:04.690Z,13.00
2022-11-10T16:01:52.217Z,12.90
2022-11-10T16:04:40.751Z,12.80
2022-11-10T16:07:27.172Z,12.70
2022-11-10T16:10:14.275Z,12.60
2022-11-10T16:13:01.289Z,12.50
2022-11-10T16:15:48.504Z,12.30
2022-11-10T16:18:36.480Z,12.20
2022-11-10T16:21:27.351Z,12.10
2022-11-10T16:24:14.175Z,12.00
2022-11-10T16:27:01.101Z,12.00
2022-11-10T16:29:48.061Z,11.90
2022-11-10T16:32:34.941Z,11.90
2022-11-10T16:35:23.896Z,11.90
2022-11-10T16:38:20.880Z,11.70
2022-11-10T16:41:13.802Z,11.70
2022-11-10T16:44:00.769Z,11.50
2022-11-10T16:46:53.218Z,11.50
2022-11-10T16:49:45.380Z,11.50
2022-11-10T16:52:32.255Z,11.40
2022-11-10T16:55:20.628Z,11.30
2022-11-10T16:58:07.318Z,11.40
2022-11-10T17:00:58.424Z,11.30
2022-11-10T17:03:48.484Z,11.30
2022-11-10T17:06:35.158Z,11.20
2022-11-10T17:09:27.036Z,11.20
2022-11-10T17:12:15.687Z,11.20
2022-11-10T17:15:02.819Z,11.10
2022-11-10T17:17:53.096Z,11.10
2022-11-10T17:20:41.497Z,11.10
2022-11-10T17:23:28.704Z,11.10
2022-11-10T17:26:19.574Z,11.00
2022-11-10T17:29:15.369Z,11.10
2022-11-10T17:32:02.177Z,11.00
2022-11-10T17:34:49.107Z,11.00
2022-11-10T17:37:36.079Z,11.00
2022-11-10T17:40:26.264Z,11.00
2022-11-10T17:43:14.883Z,10.90
2022-11-10T17:46:02.972Z,10.90
2022-11-10T17:48:49.804Z,10.80
2022-11-10T17:51:37.336Z,10.80
2022-11-10T17:54:25.376Z,10.80
2022-11-10T17:57:12.423Z,10.70
2022-11-10T17:59:59.116Z,10.60
2022-11-10T18:02:52.653Z,10.60
2022-11-10T18:05:42.193Z,10.60
2022-11-10T18:08:29.166Z,10.60
2022-11-10T18:11:18.315Z,10.60
2022-11-10T18:14:05.160Z,10.50
2022-11-10T18:16:52.621Z,10.50
2022-11-10T18:19:40.963Z,10.50
2022-11-10T18:22:27.773Z,10.40
2022-11-10T18:25:14.523Z,10.50
2022-11-10T18:28:01.482Z,10.30
2022-11-10T18:30:48.589Z,10.30
2022-11-10T18:33:36.020Z,10.20
2022-11-10T18:36:24.316Z,10.20
2022-11-10T18:39:10.996Z,10.20
2022-11-10T18:41:57.900Z,10.20
2022-11-10T18:44:44.732Z,10.20
2022-11-10T18:47:31.738Z,10.20
2022-11-10T18:50:18.759Z,10.20
2022-11-10T18:53:06.929Z,10.10
2022-11-10T18:55:56.867Z,10.20
2022-11-10T18:58:44.080Z,10.20
2022-11-10T19:01:31.111Z,10.10
2022-11-10T19:04:18.795Z,10.10
2022-11-10T19:07:06.198Z,10.10
2022-11-10T19:09:55.092Z,10.00
2022-11-10T19:12:41.693Z,10.00
2022-11-10T19:15:28.463Z,10.00
2022-11-10T19:18:15.475Z,10.00
2022-11-10T19:21:06.438Z,10.00
2022-11-10T19:23:56.041Z,10.00
2022-11-10T19:26:44.743Z,10.00
2022-11-10T19:29:31.615Z,10.00
2022-11-10T19:32:23.641Z,9.90
2022-11-10T19:35:13.307Z,9.90
2022-11-10T19:38:00.238Z,9.90
2022-11-10T19:40:47.072Z,9.90
2022-11-10T19:43:35.590Z,9.90
2022-11-10T19:46:24.195Z,9.90
2022-11-10T19:49:11.127Z,9.90
2022-11-10T19:51:58.975Z,9.90
2022-11-10T19:54:45.877Z,9.80
2022-11-10T19:57:32.725Z,9.80
2022-11-10T20:00:21.220Z,9.80
2022-11-10T20:03:11.492Z,9.70
2022-11-10T20:05:59.919Z,9.70
2022-11-10T20:08:46.843Z,9.60
2022-11-10T20:11:33.789Z,9.60
2022-11-10T20:14:20.691Z,9.60
2022-11-10T20:17:08.919Z,9.50
2022-11-10T20:19:55.599Z,9.50
2022-11-10T20:22:42.509Z,9.40
2022-11-10T20:25:29.869Z,9.40
2022-11-10T20:28:17.822Z,9.40
2022-11-10T20:31:06.758Z,9.40
2022-11-10T20:33:56.366Z,9.40
2022-11-10T20:36:43.131Z,9.30
2022-11-10T20:39:30.189Z,9.30
2022-11-10T20:42:17.225Z,9.30
2022-11-10T20:45:05.748Z,9.30
2022-11-10T20:47:52.417Z,9.30
2022-11-10T20:50:42.112Z,9.30
2022-11-10T20:53:30.140Z,9.30
2022-11-10T20:56:17.211Z,9.30
2022-11-10T20:59:03.975Z,9.20
2022-11-10T21:01:51.011Z,9.20
2022-11-10T21:04:42.736Z,9.20
2022-11-10T21:07:31.456Z,9.20
2022-11-10T21:10:18.110Z,9.20
2022-11-10T21:13:05.167Z,9.20
2022-11-10T21:15:53.165Z,9.10
2022-11-10T21:18:39.882Z,9.10
2022-11-10T21:21:33.964Z,9.10
2022-11-10T21:24:22.620Z,9.10
2022-11-10T21:27:12.087Z,9.10
2022-11-10T21:29:58.795Z,9.00
2022-11-10T21:32:45.561Z,8.90
2022-11-10T21:35:37.685Z,8.90
2022-11-10T21:38:24.933Z,8.90
2022-11-10T21:41:13.555Z,8.90
2022-11-10T21:44:00.718Z,9.00
2022-11-10T21:46:47.602Z,8.90
2022-11-10T21:49:34.206Z,8.90
2022-11-10T21:52:21.108Z,8.90
2022-11-10T21:55:09.228Z,8.80
2022-11-10T21:58:00.632Z,8.80
2022-11-10T22:00:47.794Z,8.80
2022-11-10T22:03:36.138Z,8.80
2022-11-10T22:06:23.201Z,8.70
2022-11-10T22:09:10.195Z,8.70
2022-11-10T22:12:14.282Z,8.70
2022-11-10T22:15:19.891Z,8.80
2022-11-10T22:18:30.903Z,8.80
2022-11-10T22:21:17.659Z,8.80
2022-11-10T22:24:22.665Z,8.80
2022-11-10T22:27:09.526Z,8.70
2022-11-10T22:29:56.367Z,8.80
2022-11-10T22:32:44.487Z,8.60
2022-11-10T22:35:46.313Z,8.70
2022-11-10T22:38:36.238Z,8.70
2022-11-10T22:41:40.507Z,8.70
2022-11-10T22:44:27.401Z,8.60
2022-11-10T22:47:14.243Z,8.70
2022-11-10T22:50:02.454Z,8.60
2022-11-10T22:52:49.062Z,8.60
2022-11-10T22:55:35.828Z,8.60
2022-11-10T22:58:22.639Z,8.60
2022-11-10T23:01:11.246Z,8.60
2022-11-10T23:03:59.089Z,8.50
2022-11-10T23:06:48.317Z,8.50
2022-11-10T23:09:35.382Z,8.50
2022-11-10T23:12:22.011Z,8.50
2022-11-10T23:15:09.715Z,8.40
2022-11-10T23:17:56.468Z,8.40
2022-11-10T23:20:43.391Z,8.40
2022-11-10T23:23:33.710Z,8.30
2022-11-10T23:26:22.376Z,8.30
2022-11-10T23:29:11.325Z,8.30
2022-11-10T23:31:57.862Z,8.30
2022-11-10T23:34:44.782Z,8.30
2022-11-10T23:37:31.726Z,8.20
2022-11-10T23:40:19.908Z,8.20
2022-11-10T23:43:06.851Z,8.20
2022-11-10T23:46:06.524Z,8.20
2022-11-10T23:48:53.826Z,8.30
2022-11-10T23:51:40.663Z,8.30
2022-11-10T23:54:27.733Z,8.30
2022-11-10T23:57:16.014Z,8.30
